Time;durP1;ratioP1;P1;durP2;ratioP2;P2;SDS_P1;SDS_P2;PMS_P1;PMS_P2;Temp;Humidity;BMP_temperature;BMP_pressure;BME280_temperature;BME280_humidity;BME280_pressure;Samples;Min_cycle;Max_cycle;Signal;HPM_P1;HPM_P2
2023/04/29 00:01:09;;;;;;;30.85;18.00;;;13.00;78.10;;;;;;5073243;28;20020;-64
2023/04/29 00:03:35;;;;;;;27.45;17.40;;;13.00;78.10;;;;;;5069444;28;20081;-64
2023/04/29 00:06:01;;;;;;;27.92;18.15;;;13.00;78.10;;;;;;5061925;28;20033;-64
2023/04/29 00:08:27;;;;;;;28.60;18.67;;;13.00;78.10;;;;;;5069774;28;20024;-64
2023/04/29 00:10:53;;;;;;;29.60;17.88;;;12.90;78.00;;;;;;5059670;28;20013;-64
2023/04/29 00:13:18;;;;;;;28.63;18.33;;;12.90;78.10;;;;;;5065451;28;20350;-64
2023/04/29 00:15:44;;;;;;;29.92;17.58;;;12.90;78.10;;;;;;5072816;28;20460;-64
2023/04/29 00:18:10;;;;;;;28.65;18.33;;;12.90;78.20;;;;;;5074064;28;20044;-64
2023/04/29 00:20:37;;;;;;;28.98;18.15;;;12.90;78.30;;;;;;5073236;28;20047;-64
2023/04/29 00:23:03;;;;;;;28.52;18.55;;;12.90;78.30;;;;;;5071453;28;20057;-64
2023/04/29 00:25:29;;;;;;;28.95;18.63;;;12.90;78.40;;;;;;5066054;28;20368;-64
2023/04/29 00:27:58;;;;;;;28.23;18.40;;;12.80;78.40;;;;;;5070976;28;20051;-64
2023/04/29 00:30:24;;;;;;;27.40;17.95;;;12.90;78.50;;;;;;5064573;28;20017;-64
2023/04/29 00:32:50;;;;;;;29.00;18.77;;;12.90;78.60;;;;;;5071412;28;20016;-64
2023/04/29 00:35:16;;;;;;;27.15;17.65;;;12.80;78.70;;;;;;5068574;28;20025;-64
2023/04/29 00:37:42;;;;;;;26.88;17.85;;;12.80;78.80;;;;;;5058362;28;20046;-64
2023/04/29 00:40:08;;;;;;;28.45;17.52;;;12.80;78.80;;;;;;5068097;28;20056;-64
2023/04/29 00:42:34;;;;;;;26.77;18.30;;;12.80;79.00;;;;;;5063499;28;20052;-64
2023/04/29 00:45:00;;;;;;;28.90;19.17;;;12.80;79.00;;;;;;5060514;28;20056;-64
2023/04/29 00:47:25;;;;;;;27.55;17.85;;;12.70;79.10;;;;;;5050260;28;20504;-64
2023/04/29 00:49:51;;;;;;;27.35;17.42;;;12.70;79.20;;;;;;5072394;28;20092;-64
2023/04/29 00:52:17;;;;;;;24.70;17.63;;;12.70;79.30;;;;;;5066016;28;20020;-64
2023/04/29 00:54:43;;;;;;;27.60;18.20;;;12.70;79.30;;;;;;5069584;28;20076;-64
2023/04/29 00:57:09;;;;;;;26.88;17.45;;;12.70;79.30;;;;;;5062920;28;20028;-64
2023/04/29 00:59:36;;;;;;;27.45;16.77;;;12.70;79.30;;;;;;5076169;28;20046;-64
2023/04/29 01:02:03;;;;;;;25.73;16.67;;;12.70;79.40;;;;;;5066358;28;20020;-64
2023/04/29 01:04:29;;;;;;;25.25;16.33;;;12.70;79.40;;;;;;5068983;28;20025;-64
2023/04/29 01:07:25;;;;;;;24.50;15.93;;;12.70;79.40;;;;;;5056853;28;20029;-64
2023/04/29 01:10:13;;;;;;;24.77;17.05;;;12.70;79.40;;;;;;5069985;28;20027;-64
2023/04/29 01:12:49;;;;;;;27.13;16.55;;;12.70;79.50;;;;;;5070852;28;20115;-64
2023/04/29 01:15:38;;;;;;;25.30;15.70;;;12.60;79.50;;;;;;5090076;28;20029;-64
2023/04/29 01:18:24;;;;;;;24.40;15.73;;;12.60;79.50;;;;;;5072414;28;20036;-64
2023/04/29 01:20:50;;;;;;;24.90;15.00;;;12.70;79.50;;;;;;5067164;28;20051;-64
2023/04/29 01:23:16;;;;;;;23.23;14.63;;;12.70;79.50;;;;;;5073185;28;20371;-64
2023/04/29 01:25:42;;;;;;;22.88;15.00;;;12.70;79.50;;;;;;5073997;28;20112;-64
2023/04/29 01:28:44;;;;;;;25.30;14.80;;;12.70;79.50;;;;;;5059215;28;20036;-64
2023/04/29 01:31:30;;;;;;;23.48;14.90;;;12.70;79.50;;;;;;5066953;28;20094;-64
2023/04/29 01:34:09;;;;;;;22.25;13.38;;;12.70;79.40;;;;;;5068478;28;20021;-64
2023/04/29 01:37:06;;;;;;;23.17;13.90;;;12.60;80.00;;;;;;5070611;28;20039;-64
2023/04/29 01:39:59;;;;;;;20.30;13.95;;;12.60;79.40;;;;;;5071450;28;20031;-64
2023/04/29 01:42:38;;;;;;;21.58;13.85;;;12.60;79.40;;;;;;5072169;28;20164;-64
2023/04/29 01:45:12;;;;;;;24.80;16.35;;;12.60;79.50;;;;;;5068989;28;20111;-64
2023/04/29 01:47:38;;;;;;;21.17;13.32;;;12.60;79.40;;;;;;5074171;28;20073;-64
2023/04/29 01:50:05;;;;;;;22.63;13.82;;;12.60;79.40;;;;;;5074373;28;20115;-64
2023/04/29 01:52:31;;;;;;;20.70;14.00;;;12.60;79.40;;;;;;5056776;28;20020;-64
2023/04/29 01:54:56;;;;;;;25.52;15.98;;;12.60;79.40;;;;;;5070586;28;20393;-64
2023/04/29 01:57:24;;;;;;;21.45;13.57;;;12.60;79.30;;;;;;5069568;28;20025;-64
2023/04/29 02:00:03;;;;;;;21.15;13.98;;;12.70;79.40;;;;;;5066048;28;20175;-64
2023/04/29 02:02:49;;;;;;;22.15;13.80;;;12.60;79.30;;;;;;5072367;28;20025;-64
2023/04/29 02:05:35;;;;;;;22.17;13.68;;;12.70;79.30;;;;;;5066018;28;20040;-64
2023/04/29 02:08:01;;;;;;;22.33;13.60;;;12.60;79.20;;;;;;5073285;28;20039;-64
2023/04/29 02:10:28;;;;;;;20.42;13.00;;;12.60;79.20;;;;;;5069115;28;20085;-64
2023/04/29 02:13:04;;;;;;;23.20;13.50;;;12.60;79.20;;;;;;5084429;28;20024;-64
2023/04/29 02:15:30;;;;;;;22.08;14.65;;;12.70;79.20;;;;;;5068992;28;20488;-64
2023/04/29 02:17:56;;;;;;;21.45;13.45;;;12.60;79.20;;;;;;5066734;28;20070;-64
2023/04/29 02:20:22;;;;;;;22.30;14.40;;;12.60;79.10;;;;;;5070093;28;20032;-64
2023/04/29 02:22:47;;;;;;;22.33;15.02;;;12.60;79.20;;;;;;5073725;28;20024;-64
2023/04/29 02:25:13;;;;;;;22.08;14.18;;;12.60;79.20;;;;;;5077668;28;20024;-64
2023/04/29 02:27:39;;;;;;;21.27;13.90;;;12.60;79.20;;;;;;5066141;28;20435;-64
2023/04/29 02:30:05;;;;;;;21.67;12.98;;;12.60;79.20;;;;;;5063100;28;20036;-64
2023/04/29 02:32:32;;;;;;;20.48;13.77;;;12.60;79.20;;;;;;5054671;28;20116;-64
2023/04/29 02:34:57;;;;;;;22.52;13.90;;;12.60;79.20;;;;;;5068825;28;20440;-64
2023/04/29 02:37:23;;;;;;;22.67;14.57;;;12.60;79.20;;;;;;5073128;28;20115;-64
2023/04/29 02:39:49;;;;;;;22.15;13.30;;;12.60;79.20;;;;;;5066951;28;20037;-64
2023/04/29 02:42:14;;;;;;;22.08;13.15;;;12.60;79.20;;;;;;5071738;28;20067;-64
2023/04/29 02:44:41;;;;;;;21.35;14.30;;;12.50;79.30;;;;;;5070353;28;20029;-64
2023/04/29 02:47:07;;;;;;;23.95;14.15;;;12.50;79.30;;;;;;5059920;28;20025;-64
2023/04/29 02:49:33;;;;;;;23.35;13.60;;;12.50;79.30;;;;;;5073940;28;20139;-64
2023/04/29 02:51:59;;;;;;;21.75;13.55;;;12.60;79.40;;;;;;5059320;28;20078;-64
2023/04/29 02:54:25;;;;;;;22.60;14.00;;;12.50;79.30;;;;;;5072194;28;20030;-64
2023/04/29 02:56:50;;;;;;;21.38;12.80;;;12.50;79.30;;;;;;5063329;28;20406;-64
2023/04/29 02:59:16;;;;;;;22.23;13.23;;;12.50;79.30;;;;;;5087221;28;20461;-64
2023/04/29 03:01:42;;;;;;;19.60;12.88;;;12.50;79.30;;;;;;5070234;28;20063;-64
2023/04/29 03:04:09;;;;;;;22.90;14.20;;;12.50;79.30;;;;;;5062612;28;20044;-64
2023/04/29 03:06:35;;;;;;;20.13;12.13;;;12.50;79.30;;;;;;5060686;28;20445;-64
2023/04/29 03:09:01;;;;;;;21.55;13.35;;;12.50;79.30;;;;;;5090683;28;20017;-64
2023/04/29 03:11:26;;;;;;;22.00;14.18;;;12.50;79.30;;;;;;5067527;28;20112;-64
2023/04/29 03:13:53;;;;;;;19.55;13.50;;;12.50;79.20;;;;;;5071698;28;20078;-64
2023/04/29 03:16:20;;;;;;;21.67;13.57;;;12.50;79.20;;;;;;5071912;28;20044;-64
2023/04/29 03:18:46;;;;;;;21.85;12.38;;;12.50;79.20;;;;;;5072651;28;20066;-64
2023/04/29 03:21:12;;;;;;;21.92;12.70;;;12.50;79.20;;;;;;5077080;28;20024;-64
2023/04/29 03:23:38;;;;;;;19.50;13.00;;;12.50;79.20;;;;;;5069076;28;20048;-64
2023/04/29 03:26:04;;;;;;;22.70;13.50;;;12.50;79.20;;;;;;5054987;28;20028;-64
2023/04/29 03:28:31;;;;;;;19.65;12.65;;;12.50;79.10;;;;;;5062084;28;20021;-64
2023/04/29 03:30:57;;;;;;;21.63;13.40;;;12.50;79.20;;;;;;5049598;28;20017;-64
2023/04/29 03:33:24;;;;;;;19.75;12.32;;;12.50;79.20;;;;;;5063888;28;20017;-64
2023/04/29 03:35:50;;;;;;;21.30;12.95;;;12.50;79.20;;;;;;5070688;28;20017;-64
2023/04/29 03:38:39;;;;;;;21.45;12.85;;;12.50;79.20;;;;;;5062299;28;20033;-64
2023/04/29 03:41:04;;;;;;;21.05;13.45;;;12.50;79.10;;;;;;5069214;28;20128;-64
2023/04/29 03:43:30;;;;;;;22.50;12.57;;;12.40;79.00;;;;;;5059507;28;20059;-64
2023/04/29 03:45:56;;;;;;;21.58;13.50;;;12.40;79.00;;;;;;5071574;28;20040;-64
2023/04/29 03:48:24;;;;;;;25.23;12.55;;;12.40;79.00;;;;;;5064733;28;20060;-64
2023/04/29 03:50:51;;;;;;;21.73;12.93;;;12.40;79.00;;;;;;5072583;28;20477;-64
2023/04/29 03:53:17;;;;;;;21.10;13.20;;;12.40;79.00;;;;;;5061011;28;20037;-64
2023/04/29 03:55:43;;;;;;;24.70;12.75;;;12.40;79.00;;;;;;5067858;28;20039;-64
2023/04/29 03:58:09;;;;;;;20.42;11.95;;;12.40;79.00;;;;;;5087514;28;20051;-64
2023/04/29 04:00:35;;;;;;;21.75;12.73;;;12.40;79.00;;;;;;5068285;28;20029;-64
2023/04/29 04:03:05;;;;;;;21.75;12.70;;;12.50;79.00;;;;;;5071575;28;20422;-64
2023/04/29 04:05:30;;;;;;;23.83;13.00;;;12.40;78.90;;;;;;5071463;28;20119;-64
2023/04/29 04:08:03;;;;;;;22.27;13.68;;;12.40;78.90;;;;;;5072483;28;20360;-64
2023/04/29 04:10:37;;;;;;;19.77;11.98;;;12.40;78.90;;;;;;5068282;28;20131;-64
2023/04/29 04:13:13;;;;;;;19.85;12.93;;;12.40;78.90;;;;;;5071234;28;20056;-64
2023/04/29 04:15:39;;;;;;;21.50;12.90;;;12.40;79.50;;;;;;5072077;28;20086;-64
2023/04/29 04:18:05;;;;;;;24.23;13.18;;;12.40;78.90;;;;;;5058414;28;20369;-64
2023/04/29 04:20:31;;;;;;;20.42;12.23;;;12.40;78.80;;;;;;5067234;28;20033;-64
2023/04/29 04:22:57;;;;;;;20.45;12.25;;;12.40;78.80;;;;;;5049682;28;20428;-64
2023/04/29 04:25:29;;;;;;;18.70;12.32;;;12.40;78.70;;;;;;5064098;28;20032;-64
2023/04/29 04:28:02;;;;;;;17.55;11.52;;;12.40;78.70;;;;;;5071108;28;20052;-64
2023/04/29 04:30:45;;;;;;;19.13;12.38;;;12.40;78.70;;;;;;5070478;28;20559;-64
2023/04/29 04:33:11;;;;;;;22.30;13.77;;;12.40;78.70;;;;;;5075291;28;20032;-64
2023/04/29 04:35:38;;;;;;;20.05;12.63;;;12.40;78.70;;;;;;5075342;28;20020;-64
2023/04/29 04:38:04;;;;;;;23.15;11.95;;;12.40;78.70;;;;;;5075862;28;20028;-64
2023/04/29 04:40:30;;;;;;;20.05;13.18;;;12.40;78.70;;;;;;5073653;28;20028;-64
2023/04/29 04:43:22;;;;;;;20.45;12.75;;;12.40;78.60;;;;;;5070382;28;20065;-64
2023/04/29 04:45:48;;;;;;;20.52;12.90;;;12.40;78.50;;;;;;5064536;28;20368;-64
2023/04/29 04:48:14;;;;;;;20.13;12.68;;;12.40;78.40;;;;;;5064198;28;20021;-64
2023/04/29 04:50:42;;;;;;;19.95;13.02;;;12.40;78.40;;;;;;5070721;28;20449;-64
2023/04/29 04:53:08;;;;;;;20.58;13.48;;;12.40;78.40;;;;;;5060280;28;20040;-64
2023/04/29 04:55:42;;;;;;;19.42;12.38;;;12.40;78.40;;;;;;5072550;28;20450;-64
2023/04/29 04:58:08;;;;;;;18.63;12.32;;;12.40;78.30;;;;;;5055509;28;20121;-64
2023/04/29 05:00:34;;;;;;;18.90;12.88;;;12.40;78.20;;;;;;5069751;28;20051;-64
2023/04/29 05:03:00;;;;;;;19.33;12.32;;;12.40;78.10;;;;;;5075188;28;20021;-64
2023/04/29 05:05:26;;;;;;;18.23;12.20;;;12.40;78.10;;;;;;5063731;28;20369;-64
2023/04/29 05:07:52;;;;;;;18.80;12.85;;;12.40;78.00;;;;;;5067860;28;20025;-64
2023/04/29 05:10:25;;;;;;;22.17;12.93;;;12.40;77.90;;;;;;5051135;28;20631;-64
2023/04/29 05:12:52;;;;;;;17.90;11.55;;;12.40;77.90;;;;;;5075795;28;20017;-64
2023/04/29 05:15:19;;;;;;;17.45;12.90;;;12.40;77.90;;;;;;5065889;28;20035;-64
2023/04/29 05:17:46;;;;;;;18.42;11.75;;;12.40;77.80;;;;;;5072629;28;20027;-64
2023/04/29 05:20:12;;;;;;;19.00;11.95;;;12.40;78.30;;;;;;5060636;28;20017;-64
2023/04/29 05:22:37;;;;;;;18.00;11.98;;;12.50;77.70;;;;;;5064562;28;20029;-64
2023/04/29 05:25:03;;;;;;;19.88;13.15;;;12.50;77.60;;;;;;5061186;28;20033;-64
2023/04/29 05:27:32;;;;;;;18.45;11.85;;;12.50;77.60;;;;;;5065540;28;20108;-64
2023/04/29 05:29:58;;;;;;;19.65;11.85;;;12.50;77.50;;;;;;5066595;28;20078;-64
2023/04/29 05:32:24;;;;;;;16.70;12.48;;;12.50;77.50;;;;;;5061140;28;20408;-64
2023/04/29 05:34:50;;;;;;;16.15;11.95;;;12.60;77.50;;;;;;5072866;28;20021;-64
2023/04/29 05:37:16;;;;;;;21.85;12.77;;;12.60;77.40;;;;;;5073760;28;20120;-64
2023/04/29 05:40:00;;;;;;;17.25;11.35;;;12.60;77.30;;;;;;5073867;28;20020;-64
2023/04/29 05:42:26;;;;;;;19.25;12.07;;;12.60;77.20;;;;;;5066844;28;20380;-64
2023/04/29 05:44:52;;;;;;;16.92;11.95;;;12.60;77.20;;;;;;5057253;28;20123;-64
2023/04/29 05:47:18;;;;;;;16.73;12.52;;;12.60;77.10;;;;;;5060093;28;20127;-64
2023/04/29 05:49:44;;;;;;;18.13;12.25;;;12.70;77.00;;;;;;5073029;28;20040;-64
2023/04/29 05:52:10;;;;;;;20.60;12.55;;;12.70;77.00;;;;;;5063004;28;20036;-64
2023/04/29 05:54:42;;;;;;;17.08;11.63;;;12.70;76.90;;;;;;5068006;28;20033;-64
2023/04/29 05:57:08;;;;;;;17.08;12.32;;;12.70;76.90;;;;;;5067315;28;20423;-64
2023/04/29 05:59:34;;;;;;;18.25;12.18;;;12.80;76.80;;;;;;5067084;28;20025;-64
2023/04/29 06:02:03;;;;;;;20.17;12.23;;;12.80;76.80;;;;;;5064063;28;20045;-65
2023/04/29 06:04:29;;;;;;;19.00;12.52;;;12.80;76.70;;;;;;5074455;28;20029;-66
2023/04/29 06:07:08;;;;;;;17.70;12.02;;;12.80;76.70;;;;;;5061869;28;20028;-64
2023/04/29 06:10:03;;;;;;;19.60;12.80;;;12.80;76.60;;;;;;5036871;28;20101;-64
2023/04/29 06:12:30;;;;;;;18.55;12.20;;;12.90;77.20;;;;;;5062414;28;20081;-64
2023/04/29 06:14:57;;;;;;;19.02;11.98;;;12.90;76.60;;;;;;5075223;28;20436;-64
2023/04/29 06:17:23;;;;;;;18.42;11.82;;;12.90;76.40;;;;;;5065894;28;20025;-64
2023/04/29 06:19:50;;;;;;;18.02;12.18;;;12.90;76.30;;;;;;5075117;28;20040;-64
2023/04/29 06:22:16;;;;;;;19.13;13.05;;;13.00;76.30;;;;;;5071946;28;20029;-64
2023/04/29 06:24:48;;;;;;;20.83;12.68;;;13.00;76.30;;;;;;5073992;28;20111;-64
2023/04/29 06:27:20;;;;;;;16.85;11.13;;;13.00;76.30;;;;;;5073833;28;20032;-64
2023/04/29 06:29:46;;;;;;;17.77;11.82;;;13.00;76.40;;;;;;5067509;28;20037;-64
2023/04/29 06:32:12;;;;;;;16.27;11.95;;;13.00;76.30;;;;;;5062688;28;20361;-64
2023/04/29 06:34:38;;;;;;;18.85;12.32;;;13.00;76.30;;;;;;5064173;28;20024;-64
2023/04/29 06:37:23;;;;;;;18.55;11.88;;;13.00;76.20;;;;;;5068391;28;20107;-64
2023/04/29 06:40:15;;;;;;;;;;;13.10;76.20;;;;;;5070949;28;20048;-64
2023/04/29 06:42:58;;;;;;;16.75;11.10;;;13.10;76.10;;;;;;5059976;28;20286;-64
2023/04/29 06:45:46;;;;;;;17.15;11.55;;;13.00;76.00;;;;;;5033251;28;20104;-64
2023/04/29 06:48:19;;;;;;;20.15;11.82;;;13.10;76.00;;;;;;5062263;28;20838;-64
2023/04/29 06:50:54;;;;;;;17.83;11.60;;;13.10;75.90;;;;;;5073652;28;20060;-64
2023/04/29 06:53:20;;;;;;;17.80;11.93;;;13.20;75.70;;;;;;5063355;28;20037;-64
2023/04/29 06:55:46;;;;;;;19.80;11.85;;;13.20;75.60;;;;;;5068386;28;20356;-64
2023/04/29 06:58:13;;;;;;;17.45;12.10;;;13.20;75.40;;;;;;5071221;28;20028;-64
2023/04/29 07:00:39;;;;;;;18.23;11.60;;;13.30;75.30;;;;;;5074761;28;20037;-64
2023/04/29 07:03:06;;;;;;;16.90;11.30;;;13.30;75.20;;;;;;5061421;28;20089;-64
2023/04/29 07:05:31;;;;;;;18.23;11.93;;;13.40;75.20;;;;;;5066707;28;20035;-64
2023/04/29 07:07:57;;;;;;;16.23;11.77;;;13.40;75.10;;;;;;5069851;28;20021;-64
2023/04/29 07:10:25;;;;;;;18.15;11.68;;;13.50;75.00;;;;;;5072729;28;20021;-63
2023/04/29 07:12:53;;;;;;;16.70;11.60;;;13.50;74.80;;;;;;5057411;28;20155;-63
2023/04/29 07:15:20;;;;;;;16.92;10.55;;;13.50;74.70;;;;;;5063528;28;20077;-64
2023/04/29 07:17:46;;;;;;;18.90;11.38;;;13.60;74.50;;;;;;5069824;28;20081;-63
2023/04/29 07:20:13;;;;;;;18.80;11.30;;;13.60;74.30;;;;;;5059313;28;20021;-64
2023/04/29 07:22:39;;;;;;;17.60;10.80;;;13.70;74.20;;;;;;5052951;28;20515;-63
2023/04/29 07:25:05;;;;;;;16.17;10.32;;;13.70;74.00;;;;;;5065030;28;20036;-63
2023/04/29 07:27:33;;;;;;;15.95;10.65;;;13.70;73.80;;;;;;5067185;28;20028;-63
2023/04/29 07:30:00;;;;;;;18.05;11.82;;;13.80;73.60;;;;;;5064784;28;20096;-64
2023/04/29 07:32:26;;;;;;;18.05;11.10;;;13.90;73.50;;;;;;5080014;28;20036;-64
2023/04/29 07:34:52;;;;;;;14.93;10.05;;;13.90;73.20;;;;;;5070918;28;20017;-64
2023/04/29 07:37:19;;;;;;;18.00;10.80;;;14.00;73.10;;;;;;5072807;28;20030;-64
2023/04/29 07:39:46;;;;;;;16.20;10.50;;;14.00;72.90;;;;;;5066651;28;20086;-64
2023/04/29 07:42:12;;;;;;;18.20;10.07;;;14.10;72.70;;;;;;5089148;28;20025;-65
2023/04/29 07:44:38;;;;;;;15.35;9.80;;;14.30;72.40;;;;;;5056751;28;20020;-64
2023/04/29 07:47:05;;;;;;;14.77;9.60;;;14.30;72.20;;;;;;5075579;28;20021;-64
2023/04/29 07:49:31;;;;;;;18.65;11.05;;;14.40;72.10;;;;;;5067724;28;20467;-64
2023/04/29 07:51:57;;;;;;;17.70;10.10;;;14.40;71.90;;;;;;5066828;28;20108;-64
2023/04/29 07:54:22;;;;;;;14.75;9.68;;;14.40;71.70;;;;;;5065499;28;20165;-64
2023/04/29 07:56:48;;;;;;;16.20;9.60;;;14.50;71.60;;;;;;5071918;28;20484;-65
2023/04/29 07:59:14;;;;;;;14.77;9.65;;;14.50;71.40;;;;;;5068155;28;20029;-65
2023/04/29 08:01:41;;;;;;;15.75;9.02;;;14.60;71.20;;;;;;5072268;28;20041;-65
2023/04/29 08:04:07;;;;;;;14.73;9.50;;;14.60;71.00;;;;;;5070879;28;20117;-64
2023/04/29 08:06:40;;;;;;;15.40;9.10;;;14.60;70.80;;;;;;5071381;28;20028;-65
2023/04/29 08:09:09;;;;;;;13.40;8.20;;;14.70;70.80;;;;;;5065058;28;20035;-65
2023/04/29 08:11:35;;;;;;;13.15;8.38;;;14.70;70.50;;;;;;5070640;28;20031;-65
2023/04/29 08:14:02;;;;;;;14.98;8.65;;;14.80;70.20;;;;;;5072258;28;20020;-64
2023/04/29 08:16:28;;;;;;;12.50;8.05;;;14.90;69.80;;;;;;5072280;28;20036;-65
2023/04/29 08:18:55;;;;;;;13.45;7.57;;;14.90;69.50;;;;;;5080900;28;20048;-66
2023/04/29 08:21:20;;;;;;;14.27;8.45;;;14.90;69.30;;;;;;5070291;28;20438;-65
2023/04/29 08:23:46;;;;;;;13.40;8.00;;;14.90;68.90;;;;;;5065098;28;20031;-64
2023/04/29 08:26:12;;;;;;;12.88;7.78;;;15.00;68.80;;;;;;5057654;28;20501;-65
2023/04/29 08:28:38;;;;;;;13.95;7.97;;;15.10;68.70;;;;;;5061229;28;20031;-66
2023/04/29 08:31:06;;;;;;;14.18;7.90;;;15.10;68.50;;;;;;5060072;28;20021;-65
2023/04/29 08:33:35;;;;;;;16.00;8.65;;;15.20;68.30;;;;;;5066299;28;20033;-66
2023/04/29 08:36:05;;;;;;;13.68;8.40;;;15.30;68.10;;;;;;5057957;28;20017;-66
2023/04/29 08:38:31;;;;;;;13.45;8.00;;;15.40;68.10;;;;;;5064758;28;20042;-65
2023/04/29 08:40:57;;;;;;;12.35;8.35;;;15.50;68.10;;;;;;5059209;28;20067;-66
2023/04/29 08:43:23;;;;;;;12.10;7.60;;;15.60;67.90;;;;;;5066815;28;20017;-65
2023/04/29 08:45:49;;;;;;;12.05;7.05;;;15.80;67.60;;;;;;5066648;28;20105;-65
2023/04/29 08:48:16;;;;;;;12.13;7.60;;;15.80;67.10;;;;;;5069775;28;20119;-65
2023/04/29 08:50:42;;;;;;;13.13;7.43;;;15.90;66.80;;;;;;5056646;28;20545;-65
2023/04/29 08:53:12;;;;;;;12.32;6.75;;;16.10;66.50;;;;;;5062913;28;20025;-66
2023/04/29 08:55:43;;;;;;;11.55;6.55;;;16.30;66.10;;;;;;5061650;28;20444;-66
2023/04/29 08:58:10;;;;;;;10.25;6.32;;;16.60;65.40;;;;;;5059103;28;20033;-65
2023/04/29 09:00:37;;;;;;;11.73;6.22;;;16.70;65.10;;;;;;5061942;28;20449;-66
2023/04/29 09:03:51;;;;;;;10.90;6.28;;;16.90;64.70;;;;;;5058872;28;20036;-66
2023/04/29 09:06:18;;;;;;;10.57;5.88;;;17.00;63.90;;;;;;5058590;28;20461;-67
2023/04/29 09:08:44;;;;;;;11.23;6.82;;;17.20;63.80;;;;;;5063313;28;20056;-66
2023/04/29 09:11:11;;;;;;;9.55;5.95;;;17.50;63.20;;;;;;5053159;28;20017;-67
2023/04/29 09:13:37;;;;;;;11.30;5.93;;;17.80;62.80;;;;;;5072370;28;20111;-66
2023/04/29 09:16:04;;;;;;;9.55;6.20;;;18.10;61.80;;;;;;5070397;28;20426;-66
2023/04/29 09:18:50;;;;;;;10.77;6.32;;;18.30;61.20;;;;;;5073767;28;20526;-66
2023/04/29 09:21:21;;;;;;;11.38;5.70;;;18.60;60.50;;;;;;5068157;28;20044;-66
2023/04/29 09:23:49;;;;;;;10.10;5.65;;;18.80;60.10;;;;;;5070194;28;20024;-65
2023/04/29 09:26:16;;;;;;;9.90;5.53;;;19.00;59.60;;;;;;5070641;28;20028;-65
2023/04/29 09:28:43;;;;;;;10.20;4.97;;;19.30;59.20;;;;;;5066179;28;20414;-65
2023/04/29 09:31:11;;;;;;;8.63;5.15;;;19.40;58.70;;;;;;5064188;28;20029;-65
2023/04/29 09:33:57;;;;;;;8.82;5.15;;;19.40;58.20;;;;;;5074081;28;20051;-65
2023/04/29 09:36:38;;;;;;;10.13;4.93;;;19.30;57.70;;;;;;5058081;28;20065;-65
2023/04/29 09:39:08;;;;;;;9.33;4.57;;;19.20;57.80;;;;;;5076649;28;20028;-65
2023/04/29 09:41:34;;;;;;;9.45;4.40;;;19.10;58.00;;;;;;5075510;28;20286;-65
2023/04/29 09:44:07;;;;;;;8.68;4.50;;;18.90;58.00;;;;;;5076475;28;20034;-65
2023/04/29 09:46:33;;;;;;;9.20;4.40;;;18.70;58.30;;;;;;5074515;28;20516;-65
2023/04/29 09:49:00;;;;;;;8.80;4.38;;;18.60;57.80;;;;;;5076617;28;20035;-62
2023/04/29 09:51:26;;;;;;;10.43;4.75;;;18.50;57.80;;;;;;5076497;28;20043;-63
2023/04/29 09:53:52;;;;;;;9.65;4.85;;;18.50;57.50;;;;;;5075386;28;20107;-63
2023/04/29 09:56:17;;;;;;;7.90;4.78;;;18.70;57.00;;;;;;5075627;28;20033;-62
2023/04/29 09:58:44;;;;;;;8.48;5.25;;;18.60;56.90;;;;;;5076716;28;20032;-63
2023/04/29 10:01:12;;;;;;;8.13;4.35;;;18.40;57.00;;;;;;5076673;28;20085;-62
2023/04/29 10:03:39;;;;;;;11.23;4.93;;;18.20;57.20;;;;;;5076403;28;20094;-62
2023/04/29 10:06:06;;;;;;;8.73;5.32;;;18.00;57.40;;;;;;5069477;28;20093;-62
2023/04/29 10:08:33;;;;;;;7.95;4.78;;;17.90;57.60;;;;;;5055536;28;20356;-63
2023/04/29 10:11:04;;;;;;;8.93;4.28;;;17.70;57.60;;;;;;5071545;28;20032;-63
2023/04/29 10:13:33;;;;;;;8.68;4.53;;;17.70;57.90;;;;;;5049053;28;20024;-63
2023/04/29 10:16:27;;;;;;;8.82;4.25;;;17.60;58.00;;;;;;5072288;28;20028;-63
2023/04/29 10:18:55;;;;;;;7.28;3.88;;;17.70;58.10;;;;;;5065193;28;20021;-63
2023/04/29 10:21:29;;;;;;;8.63;3.88;;;17.80;57.90;;;;;;5074513;28;20017;-63
2023/04/29 10:23:57;;;;;;;9.68;4.32;;;17.80;57.80;;;;;;5067161;28;20032;-63
2023/04/29 10:26:27;;;;;;;10.23;4.18;;;17.70;58.00;;;;;;5074913;28;20123;-63
2023/04/29 10:28:55;;;;;;;7.55;3.65;;;17.80;58.50;;;;;;5074465;28;20077;-63
2023/04/29 10:31:24;;;;;;;8.65;4.32;;;17.80;57.80;;;;;;5074832;28;20067;-63
2023/04/29 10:33:54;;;;;;;10.38;4.18;;;17.90;57.70;;;;;;5067497;28;20020;-63
2023/04/29 10:36:21;;;;;;;8.63;4.43;;;17.80;57.60;;;;;;5075945;28;20398;-63
2023/04/29 10:38:53;;;;;;;7.82;4.07;;;17.60;57.50;;;;;;5060338;28;20027;-63
2023/04/29 10:41:27;;;;;;;6.90;3.40;;;17.50;57.60;;;;;;5075221;28;20025;-62
2023/04/29 10:43:54;;;;;;;8.50;3.88;;;17.30;57.80;;;;;;5065253;28;20058;-62
2023/04/29 10:46:27;;;;;;;8.63;4.13;;;17.20;58.10;;;;;;5064646;28;20013;-63
2023/04/29 10:49:01;;;;;;;9.93;4.13;;;17.10;58.10;;;;;;5056881;28;20169;-65
2023/04/29 10:51:45;;;;;;;8.52;4.32;;;17.10;58.20;;;;;;5069388;28;20029;-62
2023/04/29 10:54:15;;;;;;;7.45;3.75;;;17.00;58.30;;;;;;5063486;28;20417;-62
2023/04/29 10:56:53;;;;;;;8.68;4.30;;;16.90;58.30;;;;;;5057768;28;20527;-63
2023/04/29 10:59:41;;;;;;;8.02;3.75;;;16.90;58.40;;;;;;5056786;28;20031;-63
2023/04/29 11:02:09;;;;;;;7.45;3.88;;;16.80;58.40;;;;;;5089389;28;20482;-63
2023/04/29 11:05:11;;;;;;;9.88;3.65;;;16.70;58.40;;;;;;5073444;28;20093;-63
2023/04/29 11:07:37;;;;;;;;;;;16.80;58.40;;;;;;5074043;28;20392;-63
2023/04/29 11:10:03;;;;;;;6.85;3.55;;;16.70;58.60;;;;;;5071533;28;19909;-63
2023/04/29 11:12:29;;;;;;;6.15;2.90;;;16.80;58.50;;;;;;5072945;28;20432;-63
2023/04/29 11:15:04;;;;;;;8.18;3.70;;;16.90;58.30;;;;;;5068070;28;20052;-63
2023/04/29 11:17:37;;;;;;;8.60;3.45;;;17.00;58.10;;;;;;5070398;28;20029;-63
2023/04/29 11:20:03;;;;;;;7.90;3.90;;;17.20;57.70;;;;;;5058502;28;20116;-63
2023/04/29 11:22:29;;;;;;;9.77;4.10;;;17.20;57.60;;;;;;5072263;28;20104;-63
2023/04/29 11:24:56;;;;;;;9.05;3.75;;;17.30;57.70;;;;;;5069042;28;20541;-63
2023/04/29 11:27:24;;;;;;;9.27;3.72;;;17.30;57.80;;;;;;5073358;28;20475;-63
2023/04/29 11:29:56;;;;;;;7.38;3.75;;;17.30;57.70;;;;;;5061685;28;20028;-63
2023/04/29 11:32:24;;;;;;;7.13;3.58;;;17.30;57.70;;;;;;5069768;28;20032;-64
2023/04/29 11:34:51;;;;;;;9.50;4.35;;;17.30;57.70;;;;;;5066534;28;20032;-63
2023/04/29 11:37:24;;;;;;;7.60;3.70;;;17.40;57.70;;;;;;5073531;28;20020;-63
2023/04/29 11:39:51;;;;;;;7.57;3.58;;;17.50;57.40;;;;;;5073039;28;20017;-63
2023/04/29 11:42:21;;;;;;;6.70;3.33;;;17.50;57.30;;;;;;5074884;28;20028;-63
2023/04/29 11:44:51;;;;;;;8.45;3.53;;;17.70;57.20;;;;;;5074548;28;20094;-63
2023/04/29 11:47:17;;;;;;;7.93;3.40;;;18.00;56.70;;;;;;5074677;28;20056;-63
2023/04/29 11:49:43;;;;;;;7.45;3.53;;;18.10;56.40;;;;;;5073486;28;20718;-63
2023/04/29 11:52:09;;;;;;;6.90;3.20;;;18.00;56.10;;;;;;5071571;28;20442;-63
2023/04/29 11:54:35;;;;;;;8.13;3.60;;;17.90;56.20;;;;;;5072588;28;20029;-63
2023/04/29 11:57:03;;;;;;;9.65;3.47;;;17.80;56.20;;;;;;5074082;28;20021;-64
2023/04/29 11:59:31;;;;;;;5.85;2.70;;;17.70;56.90;;;;;;5074332;28;20036;-63
2023/04/29 12:01:59;;;;;;;6.15;3.05;;;17.50;56.40;;;;;;5069266;28;20048;-63
2023/04/29 12:04:25;;;;;;;6.03;3.30;;;17.40;56.40;;;;;;5074301;28;20366;-63
2023/04/29 12:06:55;;;;;;;8.02;3.08;;;17.30;56.50;;;;;;5074223;28;20039;-63
2023/04/29 12:09:21;;;;;;;6.15;2.70;;;17.30;56.60;;;;;;5074150;28;20021;-63
2023/04/29 12:11:49;;;;;;;8.75;3.22;;;17.20;56.60;;;;;;5070801;28;21762;-63
2023/04/29 12:14:15;;;;;;;6.65;2.83;;;17.20;56.50;;;;;;5064026;28;20028;-63
2023/04/29 12:16:41;;;;;;;7.03;3.13;;;17.20;56.40;;;;;;5073734;28;20086;-63
2023/04/29 12:19:09;;;;;;;7.97;3.17;;;17.20;56.10;;;;;;5060651;28;20426;-63
2023/04/29 12:21:35;;;;;;;6.97;3.42;;;17.30;55.90;;;;;;5066245;28;20029;-63
2023/04/29 12:24:02;;;;;;;6.70;3.08;;;17.40;55.80;;;;;;5057133;28;20028;-63
2023/04/29 12:26:30;;;;;;;5.55;2.75;;;17.60;55.50;;;;;;5084280;28;20027;-63
2023/04/29 12:28:58;;;;;;;7.18;2.90;;;17.70;55.10;;;;;;5068416;28;20020;-63
2023/04/29 12:31:33;;;;;;;8.13;3.22;;;17.70;54.90;;;;;;5070239;28;20476;-63
2023/04/29 12:33:59;;;;;;;6.60;3.05;;;17.70;54.90;;;;;;5059633;28;20465;-64
2023/04/29 12:36:25;;;;;;;7.32;3.13;;;17.60;55.00;;;;;;5071399;28;20039;-64
2023/04/29 12:38:53;;;;;;;8.13;2.90;;;17.50;55.30;;;;;;5058807;28;20044;-64
2023/04/29 12:41:20;;;;;;;7.55;3.10;;;17.50;55.30;;;;;;5073603;28;20068;-64
2023/04/29 12:43:48;;;;;;;6.18;3.05;;;17.40;55.30;;;;;;5059231;28;20138;-63